This is the latest recevied weather packets stored in our database for station/object NC4J. If no packets are shown the sender has not sent any weather packets the latest 1 day(s).
| Time | Temp. | Humidity | Pressure | Rain* | Wind** | Luminosity | Snow |
|---|---|---|---|---|---|---|---|
| 1777984799 | 11.11° C | 78% | 1017.3 hPa | 0 mm | 0 m/s | 45 W/m² | - |
| 1777984496 | 10.56° C | 81% | 1017.3 hPa | 0 mm | 0 m/s | 78 W/m² | - |
| 1777984192 | 10.56° C | 80% | 1017.3 hPa | 0 mm | 0 m/s | 87 W/m² | - |
| 1777983890 | 10.56° C | 82% | 1017.2 hPa | 0 mm | 0 m/s | 53 W/m² | - |
| 1777983586 | 10° C | 84% | 1017.1 hPa | 0 mm | 0 m/s | 85 W/m² | - |
| 1777983283 | 8.89° C | 89% | 1017.4 hPa | 0 mm | 0 m/s | 100 W/m² | - |
| 1777982979 | 7.78° C | 91% | 1017.2 hPa | 0 mm | 0 m/s | 76 W/m² | - |
| 1777982676 | 7.22° C | 92% | 1017.1 hPa | 0 mm | 0 m/s | 19 W/m² | - |
| 1777982375 | 7.22° C | 93% | 1017 hPa | 0 mm | 0 m/s | 18 W/m² | - |
| 1777982071 | 7.22° C | 94% | 1016.9 hPa | 0 mm | 0 m/s | 23 W/m² | - |
| 1777981769 | 6.67° C | 96% | 1017 hPa | 0 mm | 0 m/s | 14 W/m² | - |
| 1777981465 | 5.56° C | 96% | 1017 hPa | 0 mm | 0 m/s | 15 W/m² | - |
| 1777981162 | 5.56° C | 96% | 1016.9 hPa | 0 mm | 0 m/s | 12 W/m² | - |
| 1777980859 | 5.56° C | 96% | 1016.9 hPa | 0 mm | 0 m/s | 11 W/m² | - |
| 1777980554 | 5.56° C | 96% | 1017.1 hPa | 0 mm | 0 m/s | 10 W/m² | - |
| 1777980252 | 5.56° C | 96% | 1016.8 hPa | 0 mm | 0 m/s | 9 W/m² | - |
| 1777979948 | 5° C | 96% | 1016.9 hPa | 0 mm | 0 m/s | 8 W/m² | - |
| 1777979643 | 5° C | 95% | 1016.8 hPa | 0 mm | 0 m/s | 7 W/m² | - |
| 1777979339 | 5° C | 95% | 1016.9 hPa | 0 mm | 0 m/s | 6 W/m² | - |
| 1777979037 | 5° C | 96% | 1016.7 hPa | 0 mm | 0 m/s | 5 W/m² | - |
| 1777978733 | 5° C | 95% | 1016.8 hPa | 0 mm | 0 m/s | 4 W/m² | - |
| 1777978429 | 5° C | 95% | 1016.8 hPa | 0 mm | 0 m/s | 3 W/m² | - |
| 1777978126 | 5.56° C | 95% | 1016.8 hPa | 0 mm | 0 m/s | 2 W/m² | - |
| 1777977824 | 5.56° C | 95% | 1016.7 hPa | 0 mm | 0 m/s | 1 W/m² | - |
| 1777977519 | 5.56° C | 95% | 1016.8 hPa | 0 mm | 0 m/s | 1 W/m² | - |
* Rain latest hour (hover to see other rain measurements)
** Current wind speed in m/s (hover to see current wind gust speed)